Terminal Aerodrome Forecast
Issued by NWS

Current Version | Previous Version | Graphics & Text | Print | Product List | Glossary On
Versions: 1 2 3 4 5 6 7 8 9 10 11 12 13 14 15 16 17 18 19 20 21 22
000
FTUS41 KPBZ 011300 AAA
TAFMGW
TAF AMD
KMGW 011355Z 0114/0212 00000KT 1/4SM FG VV002
     FM011500 00000KT 2SM BR OVC005
     FM011600 04004KT 4SM BR BKN015
     FM011800 08005KT P6SM BKN050=

USA.gov is the U.S. government's official web portal to all federal, state and local government web resources and services.